• pl
  • eng

Awiacja
Kliknij na pogrubioną czerwoną nazwę, aby odkodować depeszę. 03:31 19.06.2018
  • WIND
  • SIGNIFICANT EURO
  • SIGNIFICANT
  • SIGMET
  • AIRMET
  • TAF FC
  • TAF FT
  • METAR GG30
  • METAR GG00


METAR EPBY 190130Z VRB01KT CAVOK 15/11 Q1018 =

METAR EPGD 190130Z VRB01KT CAVOK 14/12 Q1017 =

METAR EPKK 190130Z VRB02KT 9999 SCT058 19/13 Q1019 =

METAR EPKT 190130Z 35003KT CAVOK 16/12 Q1020 =

METAR EPLB 190130Z 29005KT CAVOK 18/16 Q1017 =

METAR EPLL 190130Z 00000KT CAVOK 13/11 Q1019 =

METAR EPMO 190130Z VRB02KT CAVOK 14/13 Q1018 =

METAR EPPO 190130Z 21003KT CAVOK 17/12 Q1019 =

METAR EPRA 190130Z NIL=

METAR EPRZ 190130Z 31005KT 8000 NSC 17/17 Q1018 =

METAR EPSC 190130Z VRB02KT 9999 FEW041 17/12 Q1017 =

METAR EPSY 190130Z VRB02KT CAVOK 12/11 Q1018=

METAR EPWA 190130Z 31004KT CAVOK 17/15 Q1018 NOSIG=

METAR EPWR 190130Z 26002KT CAVOK 15/11 Q1020 =

METAR EPZG 190130Z 21002KT CAVOK 17/12 Q1020 =
 METAR EPKT
Lokalizacja:EPKT Katowice Pyrzowice
Czas:01:30 UTC
Średni kierunek wiatru:350 °
Średnia prędkość wiatru:3 węzłów
CAVOK:Widzialność 10 km i więcej, zjawisko: NIL, zachmurzenie: NSC
Temperatura powietrza:16 °C
Temperatura punktu rosy:12 °C
Ciśnienie QNH:1020 hPa
Awiacja.imgw.pl jest pogodowym serwisem informacyjnym
Instytutu Meteorologii i Gospodarki Wodnej Państwowego Instytutu Badawczego.
Copyright IMGW PIB 2009-2011© Wszelkie prawa zastrzeżone.